createdAt,value
2023-03-21T00:00:22.297Z,99.90
2023-03-21T00:05:31.029Z,99.90
2023-03-21T00:10:41.665Z,99.90
2023-03-21T00:16:08.052Z,99.90
2023-03-21T00:21:38.437Z,99.90
2023-03-21T00:26:17.897Z,99.90
2023-03-21T00:31:24.826Z,99.90
2023-03-21T00:36:33.554Z,81.50
2023-03-21T00:41:43.443Z,99.90
2023-03-21T00:47:05.967Z,93.70
2023-03-21T00:52:08.743Z,99.90
2023-03-21T00:57:07.414Z,99.90
2023-03-21T01:02:15.778Z,70.20
2023-03-21T01:07:24.496Z,24.60
2023-03-21T01:12:31.496Z,33.20
2023-03-21T01:17:38.764Z,7.60
2023-03-21T01:22:45.174Z,17.10
2023-03-21T01:27:51.940Z,99.90
2023-03-21T01:32:58.759Z,99.90
2023-03-21T01:38:06.312Z,99.90
2023-03-21T01:43:26.989Z,99.90
2023-03-21T01:48:35.138Z,99.90
2023-03-21T01:53:43.206Z,99.90
2023-03-21T01:58:50.766Z,99.90
2023-03-21T02:03:58.008Z,99.90
2023-03-21T02:09:09.058Z,99.90
2023-03-21T02:14:28.250Z,99.90
2023-03-21T02:20:12.273Z,99.90
2023-03-21T02:25:49.517Z,99.90
2023-03-21T02:31:21.264Z,99.90
2023-03-21T02:36:51.427Z,99.90
2023-03-21T02:42:17.198Z,99.90
2023-03-21T02:47:28.760Z,99.90
2023-03-21T02:52:39.712Z,99.90
2023-03-21T02:57:50.492Z,99.90
2023-03-21T03:03:08.650Z,99.90
2023-03-21T03:08:50.111Z,99.90
2023-03-21T03:14:31.571Z,99.90
2023-03-21T03:19:36.606Z,99.90
2023-03-21T03:25:04.742Z,99.90
2023-03-21T03:30:11.904Z,99.90
2023-03-21T03:35:21.280Z,99.90
2023-03-21T03:40:44.057Z,99.90
2023-03-21T03:45:55.964Z,99.90
2023-03-21T03:51:12.671Z,99.90
2023-03-21T03:56:19.718Z,99.90
2023-03-21T04:01:27.126Z,99.90
2023-03-21T04:06:34.917Z,99.90
2023-03-21T04:11:41.470Z,99.90
2023-03-21T04:16:49.361Z,99.90
2023-03-21T04:21:56.178Z,99.90
2023-03-21T04:27:04.000Z,99.90
2023-03-21T04:32:12.582Z,99.90
2023-03-21T04:37:24.204Z,99.90
2023-03-21T04:42:31.298Z,99.90
2023-03-21T04:47:38.534Z,99.90
2023-03-21T04:52:46.118Z,99.90
2023-03-21T04:57:56.493Z,99.90
2023-03-21T05:03:03.543Z,99.90
2023-03-21T05:08:12.002Z,99.90
2023-03-21T05:13:18.957Z,99.90
2023-03-21T05:18:26.640Z,99.90
2023-03-21T05:23:36.228Z,99.90
2023-03-21T05:28:44.788Z,99.90
2023-03-21T05:33:53.268Z,99.90
2023-03-21T05:39:02.063Z,99.90
2023-03-21T05:44:08.896Z,99.90
2023-03-21T05:49:15.588Z,99.90
2023-03-21T05:54:22.670Z,99.90
2023-03-21T05:59:30.654Z,99.90
2023-03-21T06:04:37.728Z,99.90
2023-03-21T06:09:44.739Z,99.90
2023-03-21T06:14:53.622Z,99.90
2023-03-21T06:20:01.302Z,99.90
2023-03-21T06:25:10.020Z,99.90
2023-03-21T06:30:18.099Z,99.90
2023-03-21T06:35:26.153Z,99.90
2023-03-21T06:40:33.446Z,99.90
2023-03-21T06:45:40.298Z,99.90
2023-03-21T06:50:50.900Z,99.90
2023-03-21T06:55:58.325Z,99.90
2023-03-21T07:01:07.214Z,99.90
2023-03-21T07:06:15.552Z,99.90
2023-03-21T07:11:25.140Z,99.90
2023-03-21T07:16:32.317Z,99.90
2023-03-21T07:21:39.747Z,99.90
2023-03-21T07:26:46.489Z,99.90
2023-03-21T07:31:53.025Z,99.90
2023-03-21T07:36:59.753Z,99.90
2023-03-21T07:47:15.689Z,99.90
2023-03-21T07:52:22.550Z,99.90
2023-03-21T07:57:28.758Z,99.90
2023-03-21T08:02:35.996Z,99.90
2023-03-21T08:07:42.968Z,99.90
2023-03-21T08:12:51.091Z,99.90
2023-03-21T08:18:01.069Z,99.90
2023-03-21T08:23:07.917Z,99.90
2023-03-21T08:28:14.643Z,99.90
2023-03-21T08:33:22.461Z,99.90
2023-03-21T08:38:30.746Z,99.90
2023-03-21T08:43:37.373Z,99.90
2023-03-21T08:48:44.228Z,99.90
2023-03-21T08:53:55.315Z,99.90
2023-03-21T08:59:03.531Z,99.90
2023-03-21T09:04:11.577Z,99.90
2023-03-21T09:09:18.770Z,99.90
2023-03-21T09:14:28.899Z,99.90
2023-03-21T09:19:35.333Z,99.90
2023-03-21T09:24:43.357Z,99.90
2023-03-21T09:29:53.081Z,99.90
2023-03-21T09:35:00.246Z,99.90
2023-03-21T09:40:10.084Z,99.90
2023-03-21T09:45:24.438Z,99.90
2023-03-21T09:50:41.129Z,99.90
2023-03-21T09:55:53.049Z,99.90
2023-03-21T10:01:32.587Z,99.90
2023-03-21T10:06:41.381Z,99.90
2023-03-21T10:12:08.616Z,99.90
2023-03-21T10:17:47.321Z,99.90
2023-03-21T10:22:57.018Z,99.90
2023-03-21T10:28:06.322Z,99.90
2023-03-21T10:33:19.242Z,99.90
2023-03-21T10:38:28.172Z,99.90
2023-03-21T10:43:38.653Z,99.90
2023-03-21T10:48:49.293Z,99.90
2023-03-21T10:54:09.481Z,99.90
2023-03-21T10:59:25.510Z,99.90
2023-03-21T11:04:31.930Z,99.90
2023-03-21T11:10:00.206Z,99.90
2023-03-21T11:15:31.031Z,99.90
2023-03-21T11:20:44.083Z,99.90
2023-03-21T11:25:53.292Z,99.90
2023-03-21T11:31:07.280Z,1.00
2023-03-21T11:36:28.628Z,1.00
2023-03-21T11:41:36.814Z,1.00
2023-03-21T11:46:43.569Z,1.00
2023-03-21T11:52:05.401Z,1.00
2023-03-21T11:57:40.727Z,1.00
2023-03-21T12:03:19.099Z,1.00
2023-03-21T12:08:54.806Z,1.00
2023-03-21T12:14:15.133Z,1.00
2023-03-21T12:19:54.345Z,1.00
2023-03-21T12:25:10.818Z,1.00
2023-03-21T12:30:59.030Z,1.00
2023-03-21T12:36:11.229Z,1.00
2023-03-21T12:41:34.507Z,1.00
2023-03-21T12:46:49.037Z,1.00
2023-03-21T12:52:05.970Z,1.00
2023-03-21T12:57:40.166Z,1.00
2023-03-21T13:02:55.699Z,1.00
2023-03-21T13:08:25.227Z,1.00
2023-03-21T13:13:38.976Z,1.00
2023-03-21T13:19:02.060Z,1.00
2023-03-21T13:24:32.781Z,1.00
2023-03-21T13:29:52.584Z,1.00
2023-03-21T13:35:06.628Z,1.00
2023-03-21T13:40:24.969Z,1.00
2023-03-21T13:45:48.195Z,1.00
2023-03-21T13:51:06.749Z,1.00
2023-03-21T13:56:22.800Z,1.00
2023-03-21T14:01:45.164Z,1.00
2023-03-21T14:07:02.769Z,1.00
2023-03-21T14:12:14.055Z,1.00
2023-03-21T14:17:46.679Z,1.00
2023-03-21T14:22:54.801Z,1.00
2023-03-21T14:28:06.043Z,1.00
2023-03-21T14:33:34.537Z,1.00
2023-03-21T14:38:42.159Z,1.00
2023-03-21T14:44:13.877Z,1.00
2023-03-21T14:49:31.348Z,1.00
2023-03-21T14:54:41.606Z,1.00
2023-03-21T14:59:55.164Z,1.00
2023-03-21T15:05:31.774Z,1.00
2023-03-21T15:10:39.400Z,1.00
2023-03-21T15:15:47.143Z,1.00
2023-03-21T15:20:54.460Z,1.00
2023-03-21T15:26:03.154Z,1.00
2023-03-21T15:31:18.946Z,1.00
2023-03-21T15:36:34.567Z,1.00
2023-03-21T15:41:43.519Z,1.00
2023-03-21T15:46:53.355Z,1.00
2023-03-21T15:52:16.385Z,1.00
2023-03-21T15:57:29.643Z,1.00
2023-03-21T16:02:37.166Z,1.00
2023-03-21T16:07:49.092Z,1.00
2023-03-21T16:12:56.400Z,1.00
2023-03-21T16:18:06.747Z,1.00
2023-03-21T16:23:16.426Z,1.00
2023-03-21T16:28:23.210Z,1.00
2023-03-21T16:33:29.954Z,1.00
2023-03-21T16:38:35.473Z,1.00
2023-03-21T16:43:45.487Z,1.00
2023-03-21T16:48:56.366Z,1.00
2023-03-21T16:54:03.974Z,1.00
2023-03-21T16:59:14.760Z,1.00
2023-03-21T17:04:22.295Z,1.00
2023-03-21T17:09:30.268Z,1.00
2023-03-21T17:14:46.610Z,1.00
2023-03-21T17:19:54.066Z,1.00
2023-03-21T17:25:02.884Z,1.00
2023-03-21T17:30:20.977Z,1.00
2023-03-21T17:35:29.550Z,1.00
2023-03-21T17:40:37.029Z,1.00
2023-03-21T17:45:44.431Z,1.00
2023-03-21T17:50:51.438Z,1.00
2023-03-21T17:55:58.541Z,1.00
2023-03-21T18:01:05.243Z,1.00
2023-03-21T18:06:19.970Z,1.00
2023-03-21T18:11:28.430Z,1.00
2023-03-21T18:16:35.394Z,1.00
2023-03-21T18:21:45.881Z,1.00
2023-03-21T18:26:52.764Z,1.00
2023-03-21T18:32:06.830Z,1.00
2023-03-21T18:37:13.331Z,1.00
2023-03-21T18:42:22.498Z,1.00
2023-03-21T18:47:28.670Z,1.00
2023-03-21T18:52:35.617Z,1.00
2023-03-21T18:57:43.597Z,1.00
2023-03-21T19:03:13.080Z,1.00
2023-03-21T19:08:06.903Z,1.00
2023-03-21T19:13:15.357Z,1.00
2023-03-21T19:18:53.620Z,1.00
2023-03-21T19:23:43.548Z,1.00
2023-03-21T19:28:41.556Z,1.00
2023-03-21T19:33:49.731Z,1.00
2023-03-21T19:38:56.571Z,1.00
2023-03-21T19:44:03.364Z,1.00
2023-03-21T19:49:11.927Z,1.00
2023-03-21T19:54:19.197Z,1.00
2023-03-21T19:59:28.032Z,1.00
2023-03-21T20:04:35.518Z,1.00
2023-03-21T20:09:51.931Z,1.00
2023-03-21T20:15:01.620Z,1.00
2023-03-21T20:20:01.802Z,1.00
2023-03-21T20:25:09.959Z,1.00
2023-03-21T20:30:20.307Z,1.00
2023-03-21T20:36:05.415Z,1.00
2023-03-21T20:40:35.563Z,1.00
2023-03-21T20:45:43.405Z,1.00
2023-03-21T20:50:57.834Z,1.00
2023-03-21T20:56:03.194Z,1.00
2023-03-21T21:01:12.304Z,35.40
2023-03-21T21:06:21.859Z,1.00
2023-03-21T21:16:37.505Z,1.00
2023-03-21T21:21:46.763Z,5.30
2023-03-21T21:26:53.796Z,4.00
2023-03-21T21:32:04.847Z,68.90
2023-03-21T21:37:12.176Z,99.90
2023-03-21T21:42:21.595Z,99.90
2023-03-21T21:47:29.165Z,65.10
2023-03-21T21:52:36.173Z,99.90
2023-03-21T21:57:43.541Z,99.90
2023-03-21T22:02:50.877Z,99.90
2023-03-21T22:07:59.669Z,99.90
2023-03-21T22:13:07.143Z,99.90
2023-03-21T22:18:15.103Z,99.90
2023-03-21T22:23:22.103Z,99.40
2023-03-21T22:28:29.253Z,99.90
2023-03-21T22:33:36.592Z,99.90
2023-03-21T22:38:44.075Z,99.90
2023-03-21T22:43:51.342Z,99.90
2023-03-21T22:48:58.763Z,99.90
2023-03-21T22:54:06.303Z,99.90
2023-03-21T22:59:14.049Z,99.90
2023-03-21T23:04:23.928Z,99.90
2023-03-21T23:09:31.490Z,99.90
2023-03-21T23:14:39.077Z,99.90
2023-03-21T23:19:45.931Z,99.90
2023-03-21T23:24:53.132Z,99.90
2023-03-21T23:30:00.703Z,99.90
2023-03-21T23:35:09.633Z,99.90
2023-03-21T23:40:16.740Z,99.90
2023-03-21T23:45:23.436Z,99.90
2023-03-21T23:50:29.730Z,99.90
2023-03-21T23:55:39.450Z,99.90
